sensor_id;sensor_type;location;lat;lon;timestamp;P1;durP1;ratioP1;P2;durP2;ratioP2
69970;SDS011;57301;50.328;8.542;2024-01-16T00:00:05;9.20;;;2.60;;
69970;SDS011;57301;50.328;8.542;2024-01-16T00:02:33;10.45;;;2.92;;
69970;SDS011;57301;50.328;8.542;2024-01-16T00:05:00;6.33;;;2.30;;
69970;SDS011;57301;50.328;8.542;2024-01-16T00:07:26;8.30;;;3.03;;
69970;SDS011;57301;50.328;8.542;2024-01-16T00:09:53;10.30;;;3.25;;
69970;SDS011;57301;50.328;8.542;2024-01-16T00:12:20;5.53;;;2.40;;
69970;SDS011;57301;50.328;8.542;2024-01-16T00:14:49;7.97;;;2.90;;
69970;SDS011;57301;50.328;8.542;2024-01-16T00:17:15;9.33;;;3.30;;
69970;SDS011;57301;50.328;8.542;2024-01-16T00:19:42;6.43;;;2.70;;
69970;SDS011;57301;50.328;8.542;2024-01-16T00:22:10;8.18;;;2.88;;
69970;SDS011;57301;50.328;8.542;2024-01-16T00:24:36;6.90;;;2.78;;
69970;SDS011;57301;50.328;8.542;2024-01-16T00:27:03;6.95;;;2.70;;
69970;SDS011;57301;50.328;8.542;2024-01-16T00:29:32;6.87;;;3.00;;
69970;SDS011;57301;50.328;8.542;2024-01-16T00:32:00;8.57;;;3.35;;
69970;SDS011;57301;50.328;8.542;2024-01-16T00:34:26;9.88;;;3.92;;
69970;SDS011;57301;50.328;8.542;2024-01-16T00:36:53;11.30;;;4.00;;
69970;SDS011;57301;50.328;8.542;2024-01-16T00:39:19;10.25;;;3.40;;
69970;SDS011;57301;50.328;8.542;2024-01-16T00:41:46;7.20;;;3.33;;
69970;SDS011;57301;50.328;8.542;2024-01-16T00:44:12;14.40;;;3.20;;
69970;SDS011;57301;50.328;8.542;2024-01-16T00:46:39;6.97;;;2.72;;
69970;SDS011;57301;50.328;8.542;2024-01-16T00:49:06;8.25;;;3.10;;
69970;SDS011;57301;50.328;8.542;2024-01-16T00:51:34;9.95;;;2.92;;
69970;SDS011;57301;50.328;8.542;2024-01-16T00:54:00;8.17;;;2.77;;
69970;SDS011;57301;50.328;8.542;2024-01-16T00:56:27;8.43;;;3.20;;
69970;SDS011;57301;50.328;8.542;2024-01-16T00:58:54;6.30;;;3.40;;
69970;SDS011;57301;50.328;8.542;2024-01-16T01:01:20;11.43;;;3.50;;
69970;SDS011;57301;50.328;8.542;2024-01-16T01:03:47;7.85;;;3.70;;
69970;SDS011;57301;50.328;8.542;2024-01-16T01:06:13;8.37;;;3.23;;
69970;SDS011;57301;50.328;8.542;2024-01-16T01:08:40;8.30;;;3.25;;
69970;SDS011;57301;50.328;8.542;2024-01-16T01:11:06;6.72;;;3.03;;
69970;SDS011;57301;50.328;8.542;2024-01-16T01:13:33;7.53;;;3.53;;
69970;SDS011;57301;50.328;8.542;2024-01-16T01:16:00;7.47;;;3.45;;
69970;SDS011;57301;50.328;8.542;2024-01-16T01:18:26;7.77;;;3.07;;
69970;SDS011;57301;50.328;8.542;2024-01-16T01:20:53;8.65;;;3.63;;
69970;SDS011;57301;50.328;8.542;2024-01-16T01:23:20;10.38;;;3.13;;
69970;SDS011;57301;50.328;8.542;2024-01-16T01:25:46;8.35;;;3.05;;
69970;SDS011;57301;50.328;8.542;2024-01-16T01:28:13;7.57;;;3.22;;
69970;SDS011;57301;50.328;8.542;2024-01-16T01:30:39;6.77;;;3.10;;
69970;SDS011;57301;50.328;8.542;2024-01-16T01:33:06;8.30;;;3.30;;
69970;SDS011;57301;50.328;8.542;2024-01-16T01:35:33;8.85;;;3.53;;
69970;SDS011;57301;50.328;8.542;2024-01-16T01:37:59;8.00;;;3.58;;
69970;SDS011;57301;50.328;8.542;2024-01-16T01:40:26;6.30;;;3.30;;
69970;SDS011;57301;50.328;8.542;2024-01-16T01:42:52;8.00;;;3.30;;
69970;SDS011;57301;50.328;8.542;2024-01-16T01:45:19;7.50;;;3.33;;
69970;SDS011;57301;50.328;8.542;2024-01-16T01:47:45;7.35;;;3.50;;
69970;SDS011;57301;50.328;8.542;2024-01-16T01:50:13;8.18;;;3.58;;
69970;SDS011;57301;50.328;8.542;2024-01-16T01:52:40;10.05;;;3.55;;
69970;SDS011;57301;50.328;8.542;2024-01-16T01:55:11;6.97;;;3.73;;
69970;SDS011;57301;50.328;8.542;2024-01-16T01:57:39;11.43;;;4.65;;
69970;SDS011;57301;50.328;8.542;2024-01-16T02:00:09;8.23;;;4.25;;
69970;SDS011;57301;50.328;8.542;2024-01-16T02:02:36;9.02;;;4.00;;
69970;SDS011;57301;50.328;8.542;2024-01-16T02:05:03;11.50;;;3.85;;
69970;SDS011;57301;50.328;8.542;2024-01-16T02:07:30;7.33;;;2.83;;
69970;SDS011;57301;50.328;8.542;2024-01-16T02:09:57;8.65;;;4.03;;
69970;SDS011;57301;50.328;8.542;2024-01-16T02:12:24;10.38;;;4.03;;
69970;SDS011;57301;50.328;8.542;2024-01-16T02:14:51;9.13;;;3.95;;
69970;SDS011;57301;50.328;8.542;2024-01-16T02:17:17;8.90;;;3.78;;
69970;SDS011;57301;50.328;8.542;2024-01-16T02:19:44;9.93;;;3.97;;
69970;SDS011;57301;50.328;8.542;2024-01-16T02:22:12;10.35;;;3.70;;
69970;SDS011;57301;50.328;8.542;2024-01-16T02:24:43;7.60;;;3.80;;
69970;SDS011;57301;50.328;8.542;2024-01-16T02:27:10;9.35;;;4.05;;
69970;SDS011;57301;50.328;8.542;2024-01-16T02:29:42;10.82;;;4.50;;
69970;SDS011;57301;50.328;8.542;2024-01-16T02:32:12;9.00;;;3.67;;
69970;SDS011;57301;50.328;8.542;2024-01-16T02:34:40;8.10;;;4.15;;
69970;SDS011;57301;50.328;8.542;2024-01-16T02:37:07;10.13;;;4.70;;
69970;SDS011;57301;50.328;8.542;2024-01-16T02:39:34;11.18;;;4.55;;
69970;SDS011;57301;50.328;8.542;2024-01-16T02:42:01;8.38;;;4.13;;
69970;SDS011;57301;50.328;8.542;2024-01-16T02:44:27;9.30;;;4.23;;
69970;SDS011;57301;50.328;8.542;2024-01-16T02:46:54;12.38;;;6.55;;
69970;SDS011;57301;50.328;8.542;2024-01-16T02:49:21;11.75;;;5.85;;
69970;SDS011;57301;50.328;8.542;2024-01-16T02:51:47;9.70;;;4.90;;
69970;SDS011;57301;50.328;8.542;2024-01-16T02:54:15;12.20;;;5.07;;
69970;SDS011;57301;50.328;8.542;2024-01-16T02:56:41;11.97;;;5.23;;
69970;SDS011;57301;50.328;8.542;2024-01-16T02:59:08;10.98;;;5.93;;
69970;SDS011;57301;50.328;8.542;2024-01-16T03:01:35;9.88;;;5.25;;
69970;SDS011;57301;50.328;8.542;2024-01-16T03:04:01;13.63;;;5.28;;
69970;SDS011;57301;50.328;8.542;2024-01-16T03:06:28;11.65;;;5.63;;
69970;SDS011;57301;50.328;8.542;2024-01-16T03:08:56;15.83;;;6.33;;
69970;SDS011;57301;50.328;8.542;2024-01-16T03:11:22;16.65;;;6.80;;
69970;SDS011;57301;50.328;8.542;2024-01-16T03:13:49;13.50;;;6.13;;
69970;SDS011;57301;50.328;8.542;2024-01-16T03:16:18;13.30;;;5.93;;
69970;SDS011;57301;50.328;8.542;2024-01-16T03:18:45;10.70;;;6.38;;
69970;SDS011;57301;50.328;8.542;2024-01-16T03:21:13;12.80;;;5.23;;
69970;SDS011;57301;50.328;8.542;2024-01-16T03:23:39;13.02;;;5.63;;
69970;SDS011;57301;50.328;8.542;2024-01-16T03:26:06;12.07;;;6.00;;
69970;SDS011;57301;50.328;8.542;2024-01-16T03:28:34;9.70;;;5.05;;
69970;SDS011;57301;50.328;8.542;2024-01-16T03:31:00;10.10;;;5.43;;
69970;SDS011;57301;50.328;8.542;2024-01-16T03:33:27;11.07;;;5.50;;
69970;SDS011;57301;50.328;8.542;2024-01-16T03:35:54;10.13;;;5.15;;
69970;SDS011;57301;50.328;8.542;2024-01-16T03:38:20;11.27;;;4.63;;
69970;SDS011;57301;50.328;8.542;2024-01-16T03:40:47;10.60;;;4.70;;
69970;SDS011;57301;50.328;8.542;2024-01-16T03:43:13;12.25;;;5.55;;
69970;SDS011;57301;50.328;8.542;2024-01-16T03:45:40;10.00;;;4.93;;
69970;SDS011;57301;50.328;8.542;2024-01-16T03:48:06;10.10;;;5.05;;
69970;SDS011;57301;50.328;8.542;2024-01-16T03:50:33;11.90;;;5.40;;
69970;SDS011;57301;50.328;8.542;2024-01-16T03:53:02;10.75;;;5.82;;
69970;SDS011;57301;50.328;8.542;2024-01-16T03:55:30;12.43;;;5.25;;
69970;SDS011;57301;50.328;8.542;2024-01-16T03:57:57;11.80;;;4.77;;
69970;SDS011;57301;50.328;8.542;2024-01-16T04:00:24;14.20;;;5.22;;
69970;SDS011;57301;50.328;8.542;2024-01-16T04:02:51;12.55;;;5.13;;
69970;SDS011;57301;50.328;8.542;2024-01-16T04:05:17;10.38;;;4.90;;
69970;SDS011;57301;50.328;8.542;2024-01-16T04:07:44;9.10;;;4.35;;
69970;SDS011;57301;50.328;8.542;2024-01-16T04:10:11;12.47;;;4.90;;
69970;SDS011;57301;50.328;8.542;2024-01-16T04:12:38;9.63;;;4.88;;
69970;SDS011;57301;50.328;8.542;2024-01-16T04:15:04;10.70;;;5.30;;
69970;SDS011;57301;50.328;8.542;2024-01-16T04:17:31;13.65;;;6.60;;
69970;SDS011;57301;50.328;8.542;2024-01-16T04:19:58;11.57;;;5.03;;
69970;SDS011;57301;50.328;8.542;2024-01-16T04:22:24;12.07;;;4.97;;
69970;SDS011;57301;50.328;8.542;2024-01-16T04:24:51;12.50;;;4.57;;
69970;SDS011;57301;50.328;8.542;2024-01-16T04:27:18;9.95;;;4.60;;
69970;SDS011;57301;50.328;8.542;2024-01-16T04:29:44;12.45;;;5.00;;
69970;SDS011;57301;50.328;8.542;2024-01-16T04:32:11;10.98;;;5.03;;
69970;SDS011;57301;50.328;8.542;2024-01-16T04:34:37;8.97;;;4.60;;
69970;SDS011;57301;50.328;8.542;2024-01-16T04:37:04;9.00;;;4.68;;
69970;SDS011;57301;50.328;8.542;2024-01-16T04:39:30;13.10;;;5.03;;
69970;SDS011;57301;50.328;8.542;2024-01-16T04:41:57;10.50;;;4.95;;
69970;SDS011;57301;50.328;8.542;2024-01-16T04:44:24;8.95;;;4.90;;
69970;SDS011;57301;50.328;8.542;2024-01-16T04:46:50;10.70;;;5.10;;
69970;SDS011;57301;50.328;8.542;2024-01-16T04:49:17;11.50;;;5.45;;
69970;SDS011;57301;50.328;8.542;2024-01-16T04:51:44;10.80;;;5.13;;
69970;SDS011;57301;50.328;8.542;2024-01-16T04:54:11;11.43;;;5.70;;
69970;SDS011;57301;50.328;8.542;2024-01-16T04:56:38;14.68;;;6.03;;
69970;SDS011;57301;50.328;8.542;2024-01-16T04:59:04;11.83;;;5.67;;
69970;SDS011;57301;50.328;8.542;2024-01-16T05:01:31;15.48;;;6.70;;
69970;SDS011;57301;50.328;8.542;2024-01-16T05:03:58;10.85;;;4.82;;
69970;SDS011;57301;50.328;8.542;2024-01-16T05:06:25;10.85;;;5.15;;
69970;SDS011;57301;50.328;8.542;2024-01-16T05:08:51;8.50;;;5.10;;
69970;SDS011;57301;50.328;8.542;2024-01-16T05:11:18;9.43;;;4.67;;
69970;SDS011;57301;50.328;8.542;2024-01-16T05:13:45;9.38;;;5.50;;
69970;SDS011;57301;50.328;8.542;2024-01-16T05:16:12;11.05;;;5.53;;
69970;SDS011;57301;50.328;8.542;2024-01-16T05:18:42;12.00;;;5.30;;
69970;SDS011;57301;50.328;8.542;2024-01-16T05:21:09;11.77;;;6.05;;
69970;SDS011;57301;50.328;8.542;2024-01-16T05:23:36;13.13;;;5.73;;
69970;SDS011;57301;50.328;8.542;2024-01-16T05:26:03;12.02;;;5.38;;
69970;SDS011;57301;50.328;8.542;2024-01-16T05:28:30;10.98;;;5.35;;
69970;SDS011;57301;50.328;8.542;2024-01-16T05:30:57;9.68;;;5.00;;
69970;SDS011;57301;50.328;8.542;2024-01-16T05:33:23;11.73;;;5.28;;
69970;SDS011;57301;50.328;8.542;2024-01-16T05:35:50;11.47;;;5.00;;
69970;SDS011;57301;50.328;8.542;2024-01-16T05:38:17;9.63;;;4.93;;
69970;SDS011;57301;50.328;8.542;2024-01-16T05:40:44;7.15;;;4.50;;
69970;SDS011;57301;50.328;8.542;2024-01-16T05:43:10;10.13;;;5.40;;
69970;SDS011;57301;50.328;8.542;2024-01-16T05:45:37;11.23;;;4.50;;
69970;SDS011;57301;50.328;8.542;2024-01-16T05:48:03;10.20;;;4.73;;
69970;SDS011;57301;50.328;8.542;2024-01-16T05:50:30;13.70;;;4.90;;
69970;SDS011;57301;50.328;8.542;2024-01-16T05:52:57;11.18;;;5.03;;
69970;SDS011;57301;50.328;8.542;2024-01-16T05:55:23;8.82;;;4.10;;
69970;SDS011;57301;50.328;8.542;2024-01-16T05:57:49;9.90;;;4.70;;
69970;SDS011;57301;50.328;8.542;2024-01-16T06:00:16;10.50;;;4.37;;
69970;SDS011;57301;50.328;8.542;2024-01-16T06:02:44;12.60;;;4.95;;
69970;SDS011;57301;50.328;8.542;2024-01-16T06:05:11;11.27;;;4.22;;
69970;SDS011;57301;50.328;8.542;2024-01-16T06:07:37;10.02;;;4.20;;
69970;SDS011;57301;50.328;8.542;2024-01-16T06:10:04;9.23;;;4.68;;
69970;SDS011;57301;50.328;8.542;2024-01-16T06:12:32;10.67;;;4.23;;
69970;SDS011;57301;50.328;8.542;2024-01-16T06:14:59;8.90;;;4.00;;
69970;SDS011;57301;50.328;8.542;2024-01-16T06:17:25;12.10;;;5.30;;
69970;SDS011;57301;50.328;8.542;2024-01-16T06:19:52;12.60;;;4.50;;
69970;SDS011;57301;50.328;8.542;2024-01-16T06:22:18;13.68;;;5.25;;
69970;SDS011;57301;50.328;8.542;2024-01-16T06:24:45;8.40;;;4.70;;
69970;SDS011;57301;50.328;8.542;2024-01-16T06:27:11;10.82;;;4.65;;
69970;SDS011;57301;50.328;8.542;2024-01-16T06:29:45;7.70;;;4.25;;
69970;SDS011;57301;50.328;8.542;2024-01-16T06:32:12;11.73;;;5.13;;
69970;SDS011;57301;50.328;8.542;2024-01-16T06:34:39;11.23;;;4.90;;
69970;SDS011;57301;50.328;8.542;2024-01-16T06:37:05;11.90;;;5.37;;
69970;SDS011;57301;50.328;8.542;2024-01-16T06:39:32;9.27;;;4.40;;
69970;SDS011;57301;50.328;8.542;2024-01-16T06:41:59;10.80;;;4.95;;
69970;SDS011;57301;50.328;8.542;2024-01-16T06:44:26;11.05;;;4.93;;
69970;SDS011;57301;50.328;8.542;2024-01-16T06:46:53;9.82;;;4.43;;
69970;SDS011;57301;50.328;8.542;2024-01-16T06:49:19;8.77;;;4.63;;
69970;SDS011;57301;50.328;8.542;2024-01-16T06:51:46;7.32;;;4.10;;
69970;SDS011;57301;50.328;8.542;2024-01-16T06:54:12;10.63;;;4.40;;
69970;SDS011;57301;50.328;8.542;2024-01-16T06:56:39;7.13;;;4.25;;
69970;SDS011;57301;50.328;8.542;2024-01-16T06:59:05;10.48;;;4.55;;
69970;SDS011;57301;50.328;8.542;2024-01-16T07:01:37;10.60;;;4.87;;
69970;SDS011;57301;50.328;8.542;2024-01-16T07:04:03;8.10;;;4.00;;
69970;SDS011;57301;50.328;8.542;2024-01-16T07:06:30;12.52;;;5.18;;
69970;SDS011;57301;50.328;8.542;2024-01-16T07:08:56;8.85;;;4.28;;
69970;SDS011;57301;50.328;8.542;2024-01-16T07:11:23;11.20;;;5.03;;
69970;SDS011;57301;50.328;8.542;2024-01-16T07:13:50;9.37;;;4.40;;
69970;SDS011;57301;50.328;8.542;2024-01-16T07:16:17;11.05;;;4.90;;
69970;SDS011;57301;50.328;8.542;2024-01-16T07:18:44;9.13;;;4.50;;
69970;SDS011;57301;50.328;8.542;2024-01-16T07:21:17;9.35;;;4.88;;
69970;SDS011;57301;50.328;8.542;2024-01-16T07:23:44;11.05;;;4.43;;
69970;SDS011;57301;50.328;8.542;2024-01-16T07:26:11;9.77;;;5.00;;
69970;SDS011;57301;50.328;8.542;2024-01-16T07:28:38;11.38;;;4.93;;
69970;SDS011;57301;50.328;8.542;2024-01-16T07:31:04;10.63;;;4.50;;
69970;SDS011;57301;50.328;8.542;2024-01-16T07:33:32;11.35;;;4.93;;
69970;SDS011;57301;50.328;8.542;2024-01-16T07:35:59;10.75;;;5.30;;
69970;SDS011;57301;50.328;8.542;2024-01-16T07:38:30;11.13;;;5.50;;
69970;SDS011;57301;50.328;8.542;2024-01-16T07:40:58;11.25;;;4.72;;
69970;SDS011;57301;50.328;8.542;2024-01-16T07:43:24;11.35;;;4.93;;
69970;SDS011;57301;50.328;8.542;2024-01-16T07:45:51;10.52;;;4.53;;
69970;SDS011;57301;50.328;8.542;2024-01-16T07:48:18;9.85;;;4.63;;
69970;SDS011;57301;50.328;8.542;2024-01-16T07:50:45;11.97;;;4.60;;
69970;SDS011;57301;50.328;8.542;2024-01-16T07:53:12;8.85;;;4.78;;
69970;SDS011;57301;50.328;8.542;2024-01-16T07:55:39;10.90;;;4.65;;
69970;SDS011;57301;50.328;8.542;2024-01-16T07:58:05;10.25;;;4.63;;
69970;SDS011;57301;50.328;8.542;2024-01-16T08:00:32;10.50;;;4.97;;
69970;SDS011;57301;50.328;8.542;2024-01-16T08:02:59;10.27;;;4.53;;
69970;SDS011;57301;50.328;8.542;2024-01-16T08:05:26;11.38;;;4.38;;
69970;SDS011;57301;50.328;8.542;2024-01-16T08:07:54;10.63;;;5.45;;
69970;SDS011;57301;50.328;8.542;2024-01-16T08:10:21;7.43;;;4.28;;
69970;SDS011;57301;50.328;8.542;2024-01-16T08:12:51;13.88;;;4.25;;
69970;SDS011;57301;50.328;8.542;2024-01-16T08:15:18;10.13;;;4.37;;
69970;SDS011;57301;50.328;8.542;2024-01-16T08:17:47;7.93;;;3.85;;
69970;SDS011;57301;50.328;8.542;2024-01-16T08:20:17;11.23;;;4.50;;
69970;SDS011;57301;50.328;8.542;2024-01-16T08:22:44;10.65;;;3.95;;
69970;SDS011;57301;50.328;8.542;2024-01-16T08:25:13;10.13;;;4.40;;
69970;SDS011;57301;50.328;8.542;2024-01-16T08:27:39;10.33;;;3.83;;
69970;SDS011;57301;50.328;8.542;2024-01-16T08:30:06;8.85;;;4.05;;
69970;SDS011;57301;50.328;8.542;2024-01-16T08:32:36;11.63;;;5.47;;
69970;SDS011;57301;50.328;8.542;2024-01-16T08:35:03;12.80;;;4.85;;
69970;SDS011;57301;50.328;8.542;2024-01-16T08:37:36;11.57;;;4.25;;
69970;SDS011;57301;50.328;8.542;2024-01-16T08:40:03;15.30;;;4.87;;
69970;SDS011;57301;50.328;8.542;2024-01-16T08:42:33;13.45;;;5.13;;
69970;SDS011;57301;50.328;8.542;2024-01-16T08:45:00;9.45;;;3.83;;
69970;SDS011;57301;50.328;8.542;2024-01-16T08:47:26;13.30;;;4.50;;
69970;SDS011;57301;50.328;8.542;2024-01-16T08:49:53;8.00;;;4.25;;
69970;SDS011;57301;50.328;8.542;2024-01-16T08:52:25;12.10;;;4.17;;
69970;SDS011;57301;50.328;8.542;2024-01-16T08:54:56;10.48;;;4.47;;
69970;SDS011;57301;50.328;8.542;2024-01-16T08:57:22;11.90;;;4.30;;
69970;SDS011;57301;50.328;8.542;2024-01-16T08:59:51;7.72;;;4.05;;
69970;SDS011;57301;50.328;8.542;2024-01-16T09:02:23;8.75;;;4.07;;
69970;SDS011;57301;50.328;8.542;2024-01-16T09:04:52;6.57;;;3.47;;
69970;SDS011;57301;50.328;8.542;2024-01-16T09:07:18;8.82;;;3.88;;
69970;SDS011;57301;50.328;8.542;2024-01-16T09:09:45;9.85;;;4.65;;
69970;SDS011;57301;50.328;8.542;2024-01-16T09:12:12;8.45;;;4.03;;
69970;SDS011;57301;50.328;8.542;2024-01-16T09:14:38;8.57;;;4.15;;
69970;SDS011;57301;50.328;8.542;2024-01-16T09:17:07;13.17;;;4.70;;
69970;SDS011;57301;50.328;8.542;2024-01-16T09:19:33;9.38;;;4.10;;
69970;SDS011;57301;50.328;8.542;2024-01-16T09:22:00;7.00;;;3.58;;
69970;SDS011;57301;50.328;8.542;2024-01-16T09:24:30;7.78;;;3.50;;
69970;SDS011;57301;50.328;8.542;2024-01-16T09:26:57;11.25;;;4.00;;
69970;SDS011;57301;50.328;8.542;2024-01-16T09:29:29;9.33;;;3.40;;
69970;SDS011;57301;50.328;8.542;2024-01-16T09:31:57;8.05;;;3.60;;
69970;SDS011;57301;50.328;8.542;2024-01-16T09:34:23;11.48;;;3.80;;
69970;SDS011;57301;50.328;8.542;2024-01-16T09:36:52;9.30;;;3.38;;
69970;SDS011;57301;50.328;8.542;2024-01-16T09:39:20;6.43;;;3.45;;
69970;SDS011;57301;50.328;8.542;2024-01-16T09:41:51;7.37;;;3.67;;
69970;SDS011;57301;50.328;8.542;2024-01-16T09:44:18;10.10;;;3.78;;
69970;SDS011;57301;50.328;8.542;2024-01-16T09:46:45;9.88;;;3.85;;
69970;SDS011;57301;50.328;8.542;2024-01-16T09:49:16;6.32;;;3.22;;
69970;SDS011;57301;50.328;8.542;2024-01-16T09:51:45;7.72;;;2.85;;
69970;SDS011;57301;50.328;8.542;2024-01-16T09:54:15;9.23;;;3.60;;
69970;SDS011;57301;50.328;8.542;2024-01-16T09:56:43;13.85;;;4.28;;
69970;SDS011;57301;50.328;8.542;2024-01-16T09:59:17;7.18;;;3.40;;
69970;SDS011;57301;50.328;8.542;2024-01-16T10:01:54;10.73;;;3.90;;
69970;SDS011;57301;50.328;8.542;2024-01-16T10:04:22;5.38;;;3.10;;
69970;SDS011;57301;50.328;8.542;2024-01-16T10:06:48;7.33;;;3.30;;
69970;SDS011;57301;50.328;8.542;2024-01-16T10:09:17;5.88;;;2.72;;
69970;SDS011;57301;50.328;8.542;2024-01-16T10:11:44;7.53;;;3.40;;
69970;SDS011;57301;50.328;8.542;2024-01-16T10:14:11;9.50;;;3.25;;
69970;SDS011;57301;50.328;8.542;2024-01-16T10:19:27;6.13;;;2.90;;
69970;SDS011;57301;50.328;8.542;2024-01-16T10:22:11;5.93;;;2.88;;
69970;SDS011;57301;50.328;8.542;2024-01-16T10:24:40;10.73;;;3.30;;
69970;SDS011;57301;50.328;8.542;2024-01-16T10:27:07;6.95;;;3.05;;
69970;SDS011;57301;50.328;8.542;2024-01-16T10:29:37;7.00;;;3.20;;
69970;SDS011;57301;50.328;8.542;2024-01-16T10:32:28;10.93;;;2.90;;
69970;SDS011;57301;50.328;8.542;2024-01-16T10:40:18;7.68;;;2.80;;
69970;SDS011;57301;50.328;8.542;2024-01-16T10:43:00;9.48;;;3.08;;
69970;SDS011;57301;50.328;8.542;2024-01-16T10:45:31;6.80;;;2.67;;
69970;SDS011;57301;50.328;8.542;2024-01-16T10:48:07;7.50;;;3.05;;
69970;SDS011;57301;50.328;8.542;2024-01-16T10:50:36;7.85;;;2.97;;
69970;SDS011;57301;50.328;8.542;2024-01-16T10:53:05;9.50;;;2.78;;
69970;SDS011;57301;50.328;8.542;2024-01-16T10:55:49;5.35;;;3.22;;
69970;SDS011;57301;50.328;8.542;2024-01-16T10:58:23;5.10;;;2.50;;
69970;SDS011;57301;50.328;8.542;2024-01-16T11:00:52;4.07;;;2.83;;
69970;SDS011;57301;50.328;8.542;2024-01-16T11:03:27;5.72;;;2.58;;
69970;SDS011;57301;50.328;8.542;2024-01-16T11:06:00;3.75;;;2.08;;
69970;SDS011;57301;50.328;8.542;2024-01-16T11:08:30;6.50;;;2.80;;
69970;SDS011;57301;50.328;8.542;2024-01-16T11:10:59;8.37;;;3.20;;
69970;SDS011;57301;50.328;8.542;2024-01-16T11:13:27;5.22;;;2.67;;
69970;SDS011;57301;50.328;8.542;2024-01-16T11:15:54;7.82;;;2.78;;
69970;SDS011;57301;50.328;8.542;2024-01-16T11:18:22;6.32;;;2.17;;
69970;SDS011;57301;50.328;8.542;2024-01-16T11:20:51;5.75;;;2.70;;
69970;SDS011;57301;50.328;8.542;2024-01-16T11:23:33;7.13;;;2.50;;
69970;SDS011;57301;50.328;8.542;2024-01-16T11:26:24;7.30;;;2.45;;
69970;SDS011;57301;50.328;8.542;2024-01-16T11:28:52;6.18;;;2.17;;
69970;SDS011;57301;50.328;8.542;2024-01-16T11:33:59;6.05;;;2.38;;
69970;SDS011;57301;50.328;8.542;2024-01-16T11:36:45;8.87;;;2.80;;
69970;SDS011;57301;50.328;8.542;2024-01-16T11:39:17;5.40;;;3.00;;
69970;SDS011;57301;50.328;8.542;2024-01-16T11:41:55;5.90;;;2.63;;
69970;SDS011;57301;50.328;8.542;2024-01-16T11:47:10;5.85;;;2.40;;
69970;SDS011;57301;50.328;8.542;2024-01-16T11:49:49;6.30;;;2.33;;
69970;SDS011;57301;50.328;8.542;2024-01-16T11:52:51;5.45;;;2.50;;
69970;SDS011;57301;50.328;8.542;2024-01-16T12:00:36;10.70;;;4.07;;
69970;SDS011;57301;50.328;8.542;2024-01-16T12:03:07;8.60;;;2.77;;
69970;SDS011;57301;50.328;8.542;2024-01-16T12:05:37;8.13;;;3.15;;
69970;SDS011;57301;50.328;8.542;2024-01-16T12:08:03;7.18;;;2.50;;
69970;SDS011;57301;50.328;8.542;2024-01-16T12:10:30;4.07;;;2.50;;
69970;SDS011;57301;50.328;8.542;2024-01-16T12:12:59;5.70;;;2.05;;
69970;SDS011;57301;50.328;8.542;2024-01-16T12:15:30;6.67;;;3.10;;
69970;SDS011;57301;50.328;8.542;2024-01-16T12:20:27;7.40;;;3.03;;
69970;SDS011;57301;50.328;8.542;2024-01-16T12:22:59;8.57;;;2.70;;
69970;SDS011;57301;50.328;8.542;2024-01-16T12:25:29;8.15;;;2.65;;
69970;SDS011;57301;50.328;8.542;2024-01-16T12:28:19;8.13;;;2.67;;
69970;SDS011;57301;50.328;8.542;2024-01-16T12:30:50;9.63;;;2.97;;
69970;SDS011;57301;50.328;8.542;2024-01-16T12:33:21;7.10;;;3.05;;
69970;SDS011;57301;50.328;8.542;2024-01-16T12:35:49;4.15;;;2.33;;
69970;SDS011;57301;50.328;8.542;2024-01-16T12:38:16;7.80;;;2.67;;
69970;SDS011;57301;50.328;8.542;2024-01-16T12:43:17;7.43;;;2.78;;
69970;SDS011;57301;50.328;8.542;2024-01-16T12:45:46;7.45;;;2.95;;
69970;SDS011;57301;50.328;8.542;2024-01-16T12:48:12;4.45;;;2.20;;
69970;SDS011;57301;50.328;8.542;2024-01-16T12:50:39;10.35;;;2.70;;
69970;SDS011;57301;50.328;8.542;2024-01-16T12:53:07;5.77;;;2.70;;
69970;SDS011;57301;50.328;8.542;2024-01-16T12:55:38;8.77;;;3.08;;
69970;SDS011;57301;50.328;8.542;2024-01-16T13:00:43;8.35;;;3.10;;
69970;SDS011;57301;50.328;8.542;2024-01-16T13:03:20;7.63;;;3.03;;
69970;SDS011;57301;50.328;8.542;2024-01-16T13:05:58;6.77;;;3.27;;
69970;SDS011;57301;50.328;8.542;2024-01-16T13:08:26;5.90;;;2.08;;
69970;SDS011;57301;50.328;8.542;2024-01-16T13:11:03;5.18;;;2.30;;
69970;SDS011;57301;50.328;8.542;2024-01-16T13:13:31;5.30;;;2.50;;
69970;SDS011;57301;50.328;8.542;2024-01-16T13:15:58;4.88;;;2.15;;
69970;SDS011;57301;50.328;8.542;2024-01-16T13:18:27;10.73;;;3.00;;
69970;SDS011;57301;50.328;8.542;2024-01-16T13:20:56;5.07;;;2.42;;
69970;SDS011;57301;50.328;8.542;2024-01-16T13:23:24;10.48;;;4.25;;
69970;SDS011;57301;50.328;8.542;2024-01-16T13:25:51;9.30;;;3.60;;
69970;SDS011;57301;50.328;8.542;2024-01-16T13:28:20;3.78;;;2.65;;
69970;SDS011;57301;50.328;8.542;2024-01-16T13:30:51;7.27;;;2.40;;
69970;SDS011;57301;50.328;8.542;2024-01-16T13:33:18;7.68;;;2.30;;
69970;SDS011;57301;50.328;8.542;2024-01-16T13:35:46;6.82;;;2.90;;
69970;SDS011;57301;50.328;8.542;2024-01-16T13:38:13;5.78;;;2.42;;
69970;SDS011;57301;50.328;8.542;2024-01-16T13:40:45;6.05;;;3.30;;
69970;SDS011;57301;50.328;8.542;2024-01-16T13:43:11;6.83;;;2.37;;
69970;SDS011;57301;50.328;8.542;2024-01-16T13:45:38;47.63;;;19.40;;
69970;SDS011;57301;50.328;8.542;2024-01-16T13:48:05;37.92;;;17.02;;
69970;SDS011;57301;50.328;8.542;2024-01-16T13:50:32;31.33;;;14.82;;
69970;SDS011;57301;50.328;8.542;2024-01-16T13:53:00;59.28;;;26.95;;
69970;SDS011;57301;50.328;8.542;2024-01-16T13:55:28;34.17;;;14.70;;
69970;SDS011;57301;50.328;8.542;2024-01-16T13:57:55;19.98;;;7.70;;
69970;SDS011;57301;50.328;8.542;2024-01-16T14:00:21;20.48;;;7.55;;
69970;SDS011;57301;50.328;8.542;2024-01-16T14:02:48;14.13;;;6.00;;
69970;SDS011;57301;50.328;8.542;2024-01-16T14:05:16;19.38;;;9.15;;
69970;SDS011;57301;50.328;8.542;2024-01-16T14:07:47;22.93;;;10.53;;
69970;SDS011;57301;50.328;8.542;2024-01-16T14:10:17;8.02;;;4.15;;
69970;SDS011;57301;50.328;8.542;2024-01-16T14:12:48;8.38;;;3.15;;
69970;SDS011;57301;50.328;8.542;2024-01-16T14:15:16;48.92;;;20.58;;
69970;SDS011;57301;50.328;8.542;2024-01-16T14:17:49;14.35;;;6.45;;
69970;SDS011;57301;50.328;8.542;2024-01-16T14:20:16;7.73;;;2.97;;
69970;SDS011;57301;50.328;8.542;2024-01-16T14:22:44;7.88;;;3.03;;
69970;SDS011;57301;50.328;8.542;2024-01-16T14:25:11;13.10;;;5.78;;
69970;SDS011;57301;50.328;8.542;2024-01-16T14:27:42;14.90;;;6.25;;
69970;SDS011;57301;50.328;8.542;2024-01-16T14:30:11;6.30;;;2.88;;
69970;SDS011;57301;50.328;8.542;2024-01-16T14:32:45;10.97;;;4.93;;
69970;SDS011;57301;50.328;8.542;2024-01-16T14:35:12;14.70;;;6.72;;
69970;SDS011;57301;50.328;8.542;2024-01-16T14:37:40;9.77;;;4.55;;
69970;SDS011;57301;50.328;8.542;2024-01-16T14:40:07;23.80;;;8.73;;
69970;SDS011;57301;50.328;8.542;2024-01-16T14:42:46;15.30;;;5.97;;
69970;SDS011;57301;50.328;8.542;2024-01-16T14:45:22;8.37;;;3.67;;
69970;SDS011;57301;50.328;8.542;2024-01-16T14:47:50;8.05;;;3.00;;
69970;SDS011;57301;50.328;8.542;2024-01-16T14:50:17;10.38;;;4.65;;
69970;SDS011;57301;50.328;8.542;2024-01-16T14:52:44;11.68;;;4.25;;
69970;SDS011;57301;50.328;8.542;2024-01-16T14:55:15;24.27;;;9.70;;
69970;SDS011;57301;50.328;8.542;2024-01-16T14:57:42;6.30;;;2.70;;
69970;SDS011;57301;50.328;8.542;2024-01-16T15:00:13;10.60;;;3.00;;
69970;SDS011;57301;50.328;8.542;2024-01-16T15:02:46;9.13;;;3.78;;
69970;SDS011;57301;50.328;8.542;2024-01-16T15:05:17;10.32;;;5.03;;
69970;SDS011;57301;50.328;8.542;2024-01-16T15:07:48;10.60;;;4.30;;
69970;SDS011;57301;50.328;8.542;2024-01-16T15:10:18;8.63;;;4.07;;
69970;SDS011;57301;50.328;8.542;2024-01-16T15:12:45;9.43;;;4.05;;